sensor_id;sensor_type;location;lat;lon;timestamp;pressure;altitude;pressure_sealevel;temperature
10598;BMP180;5346;48.766;8.674;2023-07-20T00:01:24;94104.00;;;15.40
10598;BMP180;5346;48.766;8.674;2023-07-20T00:03:53;94101.00;;;15.40
10598;BMP180;5346;48.766;8.674;2023-07-20T00:06:31;94105.00;;;15.30
10598;BMP180;5346;48.766;8.674;2023-07-20T00:09:08;94108.00;;;15.10
10598;BMP180;5346;48.766;8.674;2023-07-20T00:11:50;94103.00;;;15.00
10598;BMP180;5346;48.766;8.674;2023-07-20T00:14:25;94108.00;;;14.90
10598;BMP180;5346;48.766;8.674;2023-07-20T00:17:03;94119.00;;;14.90
10598;BMP180;5346;48.766;8.674;2023-07-20T00:19:37;94113.00;;;14.90
10598;BMP180;5346;48.766;8.674;2023-07-20T00:22:12;94120.00;;;14.90
10598;BMP180;5346;48.766;8.674;2023-07-20T00:24:47;94108.00;;;14.80
10598;BMP180;5346;48.766;8.674;2023-07-20T00:27:25;94117.00;;;14.80
10598;BMP180;5346;48.766;8.674;2023-07-20T00:29:59;94113.00;;;14.70
10598;BMP180;5346;48.766;8.674;2023-07-20T00:32:27;94109.00;;;14.80
10598;BMP180;5346;48.766;8.674;2023-07-20T00:35:02;94110.00;;;14.60
10598;BMP180;5346;48.766;8.674;2023-07-20T00:37:30;94115.00;;;14.60
10598;BMP180;5346;48.766;8.674;2023-07-20T00:40:07;94118.00;;;14.50
10598;BMP180;5346;48.766;8.674;2023-07-20T00:42:37;94122.00;;;14.30
10598;BMP180;5346;48.766;8.674;2023-07-20T00:45:12;94126.00;;;14.20
10598;BMP180;5346;48.766;8.674;2023-07-20T00:47:41;94131.00;;;14.20
10598;BMP180;5346;48.766;8.674;2023-07-20T00:50:16;94119.00;;;14.40
10598;BMP180;5346;48.766;8.674;2023-07-20T00:52:44;94124.00;;;14.50
10598;BMP180;5346;48.766;8.674;2023-07-20T00:55:24;94119.00;;;14.50
10598;BMP180;5346;48.766;8.674;2023-07-20T00:57:59;94116.00;;;14.50
10598;BMP180;5346;48.766;8.674;2023-07-20T01:00:34;94123.00;;;14.50
10598;BMP180;5346;48.766;8.674;2023-07-20T01:03:09;94113.00;;;14.20
10598;BMP180;5346;48.766;8.674;2023-07-20T01:08:40;94118.00;;;14.30
10598;BMP180;5346;48.766;8.674;2023-07-20T01:11:17;94107.00;;;14.00
10598;BMP180;5346;48.766;8.674;2023-07-20T01:14:03;94113.00;;;13.90
10598;BMP180;5346;48.766;8.674;2023-07-20T01:16:33;94111.00;;;14.00
10598;BMP180;5346;48.766;8.674;2023-07-20T01:19:12;94112.00;;;14.00
10598;BMP180;5346;48.766;8.674;2023-07-20T01:22:14;94110.00;;;14.00
10598;BMP180;5346;48.766;8.674;2023-07-20T01:27:59;94116.00;;;13.70
10598;BMP180;5346;48.766;8.674;2023-07-20T01:33:41;94117.00;;;13.60
10598;BMP180;5346;48.766;8.674;2023-07-20T01:36:23;94109.00;;;13.60
10598;BMP180;5346;48.766;8.674;2023-07-20T01:38:59;94113.00;;;13.40
10598;BMP180;5346;48.766;8.674;2023-07-20T01:41:27;94106.00;;;13.50
10598;BMP180;5346;48.766;8.674;2023-07-20T01:44:04;94105.00;;;13.70
10598;BMP180;5346;48.766;8.674;2023-07-20T01:46:38;94100.00;;;13.60
10598;BMP180;5346;48.766;8.674;2023-07-20T01:49:12;94101.00;;;13.70
10598;BMP180;5346;48.766;8.674;2023-07-20T01:51:40;94095.00;;;13.60
10598;BMP180;5346;48.766;8.674;2023-07-20T01:54:14;94097.00;;;13.60
10598;BMP180;5346;48.766;8.674;2023-07-20T01:56:42;94094.00;;;13.50
10598;BMP180;5346;48.766;8.674;2023-07-20T01:59:17;94100.00;;;13.50
10598;BMP180;5346;48.766;8.674;2023-07-20T02:01:52;94110.00;;;13.40
10598;BMP180;5346;48.766;8.674;2023-07-20T02:04:34;94101.00;;;13.20
10598;BMP180;5346;48.766;8.674;2023-07-20T02:07:03;94095.00;;;13.10
10598;BMP180;5346;48.766;8.674;2023-07-20T02:09:38;94094.00;;;13.10
10598;BMP180;5346;48.766;8.674;2023-07-20T02:12:10;94095.00;;;13.00
10598;BMP180;5346;48.766;8.674;2023-07-20T02:14:38;94095.00;;;13.00
10598;BMP180;5346;48.766;8.674;2023-07-20T02:17:14;94099.00;;;13.00
10598;BMP180;5346;48.766;8.674;2023-07-20T02:19:42;94105.00;;;12.80
10598;BMP180;5346;48.766;8.674;2023-07-20T02:22:16;94095.00;;;12.80
10598;BMP180;5346;48.766;8.674;2023-07-20T02:24:44;94098.00;;;12.80
10598;BMP180;5346;48.766;8.674;2023-07-20T02:27:14;94093.00;;;12.90
10598;BMP180;5346;48.766;8.674;2023-07-20T02:29:58;94098.00;;;12.80
10598;BMP180;5346;48.766;8.674;2023-07-20T02:32:32;94102.00;;;12.80
10598;BMP180;5346;48.766;8.674;2023-07-20T02:35:07;94099.00;;;12.70
10598;BMP180;5346;48.766;8.674;2023-07-20T02:37:42;94107.00;;;12.60
10598;BMP180;5346;48.766;8.674;2023-07-20T02:40:12;94108.00;;;12.60
10598;BMP180;5346;48.766;8.674;2023-07-20T02:42:46;94107.00;;;12.60
10598;BMP180;5346;48.766;8.674;2023-07-20T02:45:14;94107.00;;;12.50
10598;BMP180;5346;48.766;8.674;2023-07-20T02:47:48;94127.00;;;12.30
10598;BMP180;5346;48.766;8.674;2023-07-20T02:50:16;94122.00;;;12.10
10598;BMP180;5346;48.766;8.674;2023-07-20T02:52:50;94114.00;;;12.00
10598;BMP180;5346;48.766;8.674;2023-07-20T02:55:19;94110.00;;;11.90
10598;BMP180;5346;48.766;8.674;2023-07-20T02:57:54;94114.00;;;11.80
10598;BMP180;5346;48.766;8.674;2023-07-20T03:00:29;94111.00;;;11.70
10598;BMP180;5346;48.766;8.674;2023-07-20T03:03:04;94110.00;;;11.50
10598;BMP180;5346;48.766;8.674;2023-07-20T03:05:41;94113.00;;;11.40
10598;BMP180;5346;48.766;8.674;2023-07-20T03:08:15;94115.00;;;11.40
10598;BMP180;5346;48.766;8.674;2023-07-20T03:10:44;94103.00;;;11.50
10598;BMP180;5346;48.766;8.674;2023-07-20T03:13:19;94114.00;;;11.70
10598;BMP180;5346;48.766;8.674;2023-07-20T03:15:47;94113.00;;;11.60
10598;BMP180;5346;48.766;8.674;2023-07-20T03:18:22;94109.00;;;11.60
10598;BMP180;5346;48.766;8.674;2023-07-20T03:20:57;94108.00;;;11.50
10598;BMP180;5346;48.766;8.674;2023-07-20T03:23:32;94110.00;;;11.40
10598;BMP180;5346;48.766;8.674;2023-07-20T03:26:07;94111.00;;;11.20
10598;BMP180;5346;48.766;8.674;2023-07-20T03:28:45;94114.00;;;11.20
10598;BMP180;5346;48.766;8.674;2023-07-20T03:31:13;94115.00;;;11.10
10598;BMP180;5346;48.766;8.674;2023-07-20T03:33:49;94120.00;;;11.20
10598;BMP180;5346;48.766;8.674;2023-07-20T03:36:24;94119.00;;;11.20
10598;BMP180;5346;48.766;8.674;2023-07-20T03:38:59;94113.00;;;11.10
10598;BMP180;5346;48.766;8.674;2023-07-20T03:41:34;94127.00;;;11.10
10598;BMP180;5346;48.766;8.674;2023-07-20T03:44:08;94125.00;;;11.20
10598;BMP180;5346;48.766;8.674;2023-07-20T03:46:44;94121.00;;;11.30
10598;BMP180;5346;48.766;8.674;2023-07-20T03:49:19;94123.00;;;11.50
10598;BMP180;5346;48.766;8.674;2023-07-20T03:51:54;94122.00;;;11.60
10598;BMP180;5346;48.766;8.674;2023-07-20T03:54:29;94130.00;;;11.70
10598;BMP180;5346;48.766;8.674;2023-07-20T03:57:04;94120.00;;;11.90
10598;BMP180;5346;48.766;8.674;2023-07-20T03:59:39;94121.00;;;12.10
10598;BMP180;5346;48.766;8.674;2023-07-20T04:02:12;94132.00;;;12.30
10598;BMP180;5346;48.766;8.674;2023-07-20T04:04:54;94117.00;;;12.40
10598;BMP180;5346;48.766;8.674;2023-07-20T04:07:22;94116.00;;;12.60
10598;BMP180;5346;48.766;8.674;2023-07-20T04:09:57;94117.00;;;12.70
10598;BMP180;5346;48.766;8.674;2023-07-20T04:12:25;94126.00;;;12.80
10598;BMP180;5346;48.766;8.674;2023-07-20T04:15:00;94129.00;;;13.00
10598;BMP180;5346;48.766;8.674;2023-07-20T04:17:28;94122.00;;;13.10
10598;BMP180;5346;48.766;8.674;2023-07-20T04:20:04;94120.00;;;13.10
10598;BMP180;5346;48.766;8.674;2023-07-20T04:22:34;94126.00;;;13.20
10598;BMP180;5346;48.766;8.674;2023-07-20T04:25:09;94129.00;;;13.30
10598;BMP180;5346;48.766;8.674;2023-07-20T04:27:37;94124.00;;;13.40
10598;BMP180;5346;48.766;8.674;2023-07-20T04:30:12;94123.00;;;13.60
10598;BMP180;5346;48.766;8.674;2023-07-20T04:32:47;94123.00;;;13.60
10598;BMP180;5346;48.766;8.674;2023-07-20T04:35:44;94124.00;;;13.70
10598;BMP180;5346;48.766;8.674;2023-07-20T04:38:22;94123.00;;;13.70
10598;BMP180;5346;48.766;8.674;2023-07-20T04:40:58;94123.00;;;13.70
10598;BMP180;5346;48.766;8.674;2023-07-20T04:43:26;94128.00;;;13.70
10598;BMP180;5346;48.766;8.674;2023-07-20T04:46:01;94122.00;;;13.80
10598;BMP180;5346;48.766;8.674;2023-07-20T04:48:29;94120.00;;;13.90
10598;BMP180;5346;48.766;8.674;2023-07-20T04:51:04;94119.00;;;14.00
10598;BMP180;5346;48.766;8.674;2023-07-20T04:53:39;94130.00;;;14.00
10598;BMP180;5346;48.766;8.674;2023-07-20T04:56:14;94130.00;;;13.90
10598;BMP180;5346;48.766;8.674;2023-07-20T04:58:42;94127.00;;;14.00
10598;BMP180;5346;48.766;8.674;2023-07-20T05:01:17;94131.00;;;14.10
10598;BMP180;5346;48.766;8.674;2023-07-20T05:03:45;94122.00;;;14.10
10598;BMP180;5346;48.766;8.674;2023-07-20T05:06:34;94122.00;;;14.30
10598;BMP180;5346;48.766;8.674;2023-07-20T05:09:01;94119.00;;;14.50
10598;BMP180;5346;48.766;8.674;2023-07-20T05:11:37;94121.00;;;14.60
10598;BMP180;5346;48.766;8.674;2023-07-20T05:14:12;94123.00;;;14.60
10598;BMP180;5346;48.766;8.674;2023-07-20T05:16:40;94119.00;;;14.70
10598;BMP180;5346;48.766;8.674;2023-07-20T05:19:15;94107.00;;;14.80
10598;BMP180;5346;48.766;8.674;2023-07-20T05:21:43;94126.00;;;15.00
10598;BMP180;5346;48.766;8.674;2023-07-20T05:24:20;94122.00;;;15.10
10598;BMP180;5346;48.766;8.674;2023-07-20T05:26:49;94130.00;;;15.20
10598;BMP180;5346;48.766;8.674;2023-07-20T05:29:24;94130.00;;;15.40
10598;BMP180;5346;48.766;8.674;2023-07-20T05:31:53;94129.00;;;15.50
10598;BMP180;5346;48.766;8.674;2023-07-20T05:34:21;94130.00;;;15.60
10598;BMP180;5346;48.766;8.674;2023-07-20T05:36:56;94111.00;;;15.70
10598;BMP180;5346;48.766;8.674;2023-07-20T05:39:39;94113.00;;;15.70
10598;BMP180;5346;48.766;8.674;2023-07-20T05:42:13;94118.00;;;15.70
10598;BMP180;5346;48.766;8.674;2023-07-20T05:44:41;94106.00;;;15.80
10598;BMP180;5346;48.766;8.674;2023-07-20T05:47:15;94108.00;;;15.90
10598;BMP180;5346;48.766;8.674;2023-07-20T05:49:43;94122.00;;;16.10
10598;BMP180;5346;48.766;8.674;2023-07-20T05:52:18;94112.00;;;16.00
10598;BMP180;5346;48.766;8.674;2023-07-20T05:54:46;94119.00;;;16.00
10598;BMP180;5346;48.766;8.674;2023-07-20T05:57:20;94124.00;;;16.00
10598;BMP180;5346;48.766;8.674;2023-07-20T05:59:48;94127.00;;;16.10
10598;BMP180;5346;48.766;8.674;2023-07-20T06:02:22;94126.00;;;16.20
10598;BMP180;5346;48.766;8.674;2023-07-20T06:05:10;94131.00;;;16.30
10598;BMP180;5346;48.766;8.674;2023-07-20T06:07:44;94126.00;;;16.30
10598;BMP180;5346;48.766;8.674;2023-07-20T06:10:12;94135.00;;;16.50
10598;BMP180;5346;48.766;8.674;2023-07-20T06:12:40;94119.00;;;16.70
10598;BMP180;5346;48.766;8.674;2023-07-20T06:15:32;94121.00;;;17.10
10598;BMP180;5346;48.766;8.674;2023-07-20T06:18:08;94119.00;;;17.50
10598;BMP180;5346;48.766;8.674;2023-07-20T06:20:42;94115.00;;;17.80
10598;BMP180;5346;48.766;8.674;2023-07-20T06:23:11;94115.00;;;17.90
10598;BMP180;5346;48.766;8.674;2023-07-20T06:25:45;94110.00;;;18.50
10598;BMP180;5346;48.766;8.674;2023-07-20T06:28:13;94110.00;;;19.30
10598;BMP180;5346;48.766;8.674;2023-07-20T06:30:47;94120.00;;;19.60
10598;BMP180;5346;48.766;8.674;2023-07-20T06:33:21;94106.00;;;19.50
10598;BMP180;5346;48.766;8.674;2023-07-20T06:35:57;94106.00;;;19.40
10598;BMP180;5346;48.766;8.674;2023-07-20T06:38:25;94101.00;;;19.40
10598;BMP180;5346;48.766;8.674;2023-07-20T06:40:59;94109.00;;;19.10
10598;BMP180;5346;48.766;8.674;2023-07-20T06:43:37;94122.00;;;19.00
10598;BMP180;5346;48.766;8.674;2023-07-20T06:46:15;94124.00;;;18.70
10598;BMP180;5346;48.766;8.674;2023-07-20T06:48:50;94107.00;;;18.90
10598;BMP180;5346;48.766;8.674;2023-07-20T06:51:27;94115.00;;;19.20
10598;BMP180;5346;48.766;8.674;2023-07-20T06:53:56;94122.00;;;19.40
10598;BMP180;5346;48.766;8.674;2023-07-20T06:56:30;94109.00;;;19.20
10598;BMP180;5346;48.766;8.674;2023-07-20T06:59:11;94117.00;;;18.50
10598;BMP180;5346;48.766;8.674;2023-07-20T07:01:47;94104.00;;;18.60
10598;BMP180;5346;48.766;8.674;2023-07-20T07:04:20;94112.00;;;18.30
10598;BMP180;5346;48.766;8.674;2023-07-20T07:07:02;94120.00;;;18.30
10598;BMP180;5346;48.766;8.674;2023-07-20T07:09:37;94115.00;;;18.60
10598;BMP180;5346;48.766;8.674;2023-07-20T07:12:06;94112.00;;;18.30
10598;BMP180;5346;48.766;8.674;2023-07-20T07:14:40;94116.00;;;18.30
10598;BMP180;5346;48.766;8.674;2023-07-20T07:17:14;94115.00;;;18.70
10598;BMP180;5346;48.766;8.674;2023-07-20T07:19:49;94113.00;;;19.00
10598;BMP180;5346;48.766;8.674;2023-07-20T07:22:17;94111.00;;;18.90
10598;BMP180;5346;48.766;8.674;2023-07-20T07:24:51;94109.00;;;18.90
10598;BMP180;5346;48.766;8.674;2023-07-20T07:27:26;94120.00;;;18.20
10598;BMP180;5346;48.766;8.674;2023-07-20T07:30:00;94106.00;;;19.10
10598;BMP180;5346;48.766;8.674;2023-07-20T07:32:28;94101.00;;;19.10
10598;BMP180;5346;48.766;8.674;2023-07-20T07:35:02;94100.00;;;20.00
10598;BMP180;5346;48.766;8.674;2023-07-20T07:37:36;94101.00;;;20.50
10598;BMP180;5346;48.766;8.674;2023-07-20T07:40:24;94120.00;;;20.40
10598;BMP180;5346;48.766;8.674;2023-07-20T07:43:05;94125.00;;;19.60
10598;BMP180;5346;48.766;8.674;2023-07-20T07:45:35;94107.00;;;18.80
10598;BMP180;5346;48.766;8.674;2023-07-20T07:48:11;94126.00;;;19.80
10598;BMP180;5346;48.766;8.674;2023-07-20T07:50:47;94133.00;;;19.70
10598;BMP180;5346;48.766;8.674;2023-07-20T07:53:21;94130.00;;;19.50
10598;BMP180;5346;48.766;8.674;2023-07-20T07:55:49;94130.00;;;19.10
10598;BMP180;5346;48.766;8.674;2023-07-20T07:58:24;94133.00;;;18.30
10598;BMP180;5346;48.766;8.674;2023-07-20T08:00:59;94109.00;;;18.30
10598;BMP180;5346;48.766;8.674;2023-07-20T08:03:27;94124.00;;;19.10
10598;BMP180;5346;48.766;8.674;2023-07-20T08:06:02;94095.00;;;19.00
10598;BMP180;5346;48.766;8.674;2023-07-20T08:08:37;94109.00;;;20.00
10598;BMP180;5346;48.766;8.674;2023-07-20T08:11:11;94106.00;;;20.50
10598;BMP180;5346;48.766;8.674;2023-07-20T08:13:42;94122.00;;;20.60
10598;BMP180;5346;48.766;8.674;2023-07-20T08:16:10;94105.00;;;20.40
10598;BMP180;5346;48.766;8.674;2023-07-20T08:18:45;94120.00;;;19.70
10598;BMP180;5346;48.766;8.674;2023-07-20T08:21:13;94103.00;;;19.50
10598;BMP180;5346;48.766;8.674;2023-07-20T08:23:47;94102.00;;;19.60
10598;BMP180;5346;48.766;8.674;2023-07-20T08:26:15;94123.00;;;19.80
10598;BMP180;5346;48.766;8.674;2023-07-20T08:28:50;94105.00;;;19.70
10598;BMP180;5346;48.766;8.674;2023-07-20T08:31:24;94107.00;;;20.50
10598;BMP180;5346;48.766;8.674;2023-07-20T08:33:58;94108.00;;;21.10
10598;BMP180;5346;48.766;8.674;2023-07-20T08:36:47;94132.00;;;21.30
10598;BMP180;5346;48.766;8.674;2023-07-20T08:39:15;94119.00;;;20.30
10598;BMP180;5346;48.766;8.674;2023-07-20T08:41:50;94107.00;;;20.10
10598;BMP180;5346;48.766;8.674;2023-07-20T08:44:18;94109.00;;;20.00
10598;BMP180;5346;48.766;8.674;2023-07-20T08:46:53;94106.00;;;20.30
10598;BMP180;5346;48.766;8.674;2023-07-20T08:49:27;94103.00;;;21.20
10598;BMP180;5346;48.766;8.674;2023-07-20T08:52:01;94129.00;;;20.30
10598;BMP180;5346;48.766;8.674;2023-07-20T08:54:32;94135.00;;;19.80
10598;BMP180;5346;48.766;8.674;2023-07-20T08:57:13;94106.00;;;19.10
10598;BMP180;5346;48.766;8.674;2023-07-20T08:59:49;94124.00;;;20.30
10598;BMP180;5346;48.766;8.674;2023-07-20T09:02:19;94107.00;;;19.50
10598;BMP180;5346;48.766;8.674;2023-07-20T09:05:01;94135.00;;;20.20
10598;BMP180;5346;48.766;8.674;2023-07-20T09:07:29;94103.00;;;20.00
10598;BMP180;5346;48.766;8.674;2023-07-20T09:10:03;94089.00;;;20.20
10598;BMP180;5346;48.766;8.674;2023-07-20T09:12:42;94108.00;;;20.20
10598;BMP180;5346;48.766;8.674;2023-07-20T09:15:18;94101.00;;;20.50
10598;BMP180;5346;48.766;8.674;2023-07-20T09:17:53;94096.00;;;20.80
10598;BMP180;5346;48.766;8.674;2023-07-20T09:20:22;94102.00;;;20.80
10598;BMP180;5346;48.766;8.674;2023-07-20T09:22:57;94093.00;;;21.30
10598;BMP180;5346;48.766;8.674;2023-07-20T09:25:24;94101.00;;;21.70
10598;BMP180;5346;48.766;8.674;2023-07-20T09:28:03;94120.00;;;21.30
10598;BMP180;5346;48.766;8.674;2023-07-20T09:30:32;94104.00;;;21.70
10598;BMP180;5346;48.766;8.674;2023-07-20T09:33:19;94103.00;;;21.70
10598;BMP180;5346;48.766;8.674;2023-07-20T09:35:51;94092.00;;;22.00
10598;BMP180;5346;48.766;8.674;2023-07-20T09:38:46;94099.00;;;21.40
10598;BMP180;5346;48.766;8.674;2023-07-20T09:41:19;94090.00;;;21.70
10598;BMP180;5346;48.766;8.674;2023-07-20T09:43:56;94104.00;;;21.50
10598;BMP180;5346;48.766;8.674;2023-07-20T09:46:50;94096.00;;;21.10
10598;BMP180;5346;48.766;8.674;2023-07-20T09:49:26;94119.00;;;21.30
10598;BMP180;5346;48.766;8.674;2023-07-20T09:52:04;94089.00;;;21.90
10598;BMP180;5346;48.766;8.674;2023-07-20T09:54:33;94090.00;;;21.40
10598;BMP180;5346;48.766;8.674;2023-07-20T09:57:08;94091.00;;;21.90
10598;BMP180;5346;48.766;8.674;2023-07-20T09:59:42;94092.00;;;22.40
10598;BMP180;5346;48.766;8.674;2023-07-20T10:02:33;94092.00;;;22.20
10598;BMP180;5346;48.766;8.674;2023-07-20T10:05:03;94089.00;;;22.10
10598;BMP180;5346;48.766;8.674;2023-07-20T10:07:50;94087.00;;;22.20
10598;BMP180;5346;48.766;8.674;2023-07-20T10:10:41;94096.00;;;23.10
10598;BMP180;5346;48.766;8.674;2023-07-20T10:13:19;94077.00;;;23.50
10598;BMP180;5346;48.766;8.674;2023-07-20T10:15:54;94076.00;;;23.30
10598;BMP180;5346;48.766;8.674;2023-07-20T10:21:18;94101.00;;;22.30
10598;BMP180;5346;48.766;8.674;2023-07-20T10:23:57;94090.00;;;21.40
10598;BMP180;5346;48.766;8.674;2023-07-20T10:26:26;94078.00;;;22.10
10598;BMP180;5346;48.766;8.674;2023-07-20T10:29:05;94091.00;;;22.10
10598;BMP180;5346;48.766;8.674;2023-07-20T10:31:34;94105.00;;;21.80
10598;BMP180;5346;48.766;8.674;2023-07-20T10:34:08;94078.00;;;21.90
10598;BMP180;5346;48.766;8.674;2023-07-20T10:36:44;94062.00;;;21.80
10598;BMP180;5346;48.766;8.674;2023-07-20T10:39:25;94070.00;;;22.70
10598;BMP180;5346;48.766;8.674;2023-07-20T10:42:06;94071.00;;;22.70
10598;BMP180;5346;48.766;8.674;2023-07-20T10:44:44;94060.00;;;21.70
10598;BMP180;5346;48.766;8.674;2023-07-20T10:47:18;94053.00;;;22.20
10598;BMP180;5346;48.766;8.674;2023-07-20T10:50:01;94107.00;;;22.00
10598;BMP180;5346;48.766;8.674;2023-07-20T10:52:43;94055.00;;;20.30
10598;BMP180;5346;48.766;8.674;2023-07-20T10:55:18;94054.00;;;22.00
10598;BMP180;5346;48.766;8.674;2023-07-20T10:58:11;94103.00;;;21.90
10598;BMP180;5346;48.766;8.674;2023-07-20T11:01:02;94051.00;;;21.60
10598;BMP180;5346;48.766;8.674;2023-07-20T11:03:36;94046.00;;;22.60
10598;BMP180;5346;48.766;8.674;2023-07-20T11:09:07;94101.00;;;23.50
10598;BMP180;5346;48.766;8.674;2023-07-20T11:11:49;94098.00;;;22.30
10598;BMP180;5346;48.766;8.674;2023-07-20T11:14:26;94068.00;;;21.00
10598;BMP180;5346;48.766;8.674;2023-07-20T11:17:12;94063.00;;;23.20
10598;BMP180;5346;48.766;8.674;2023-07-20T11:19:50;94056.00;;;22.10
10598;BMP180;5346;48.766;8.674;2023-07-20T11:22:26;94049.00;;;23.70
10598;BMP180;5346;48.766;8.674;2023-07-20T11:25:01;94051.00;;;24.10
10598;BMP180;5346;48.766;8.674;2023-07-20T11:27:31;94044.00;;;24.20
10598;BMP180;5346;48.766;8.674;2023-07-20T11:30:16;94040.00;;;24.60
10598;BMP180;5346;48.766;8.674;2023-07-20T11:32:51;94048.00;;;24.70
10598;BMP180;5346;48.766;8.674;2023-07-20T11:35:26;94029.00;;;24.50
10598;BMP180;5346;48.766;8.674;2023-07-20T11:37:54;94036.00;;;24.90
10598;BMP180;5346;48.766;8.674;2023-07-20T11:40:29;94042.00;;;24.80
10598;BMP180;5346;48.766;8.674;2023-07-20T11:43:03;94042.00;;;25.00
10598;BMP180;5346;48.766;8.674;2023-07-20T11:45:40;94036.00;;;24.80
10598;BMP180;5346;48.766;8.674;2023-07-20T11:48:15;94036.00;;;24.90
10598;BMP180;5346;48.766;8.674;2023-07-20T11:50:50;94036.00;;;25.60
10598;BMP180;5346;48.766;8.674;2023-07-20T11:53:20;94034.00;;;25.40
10598;BMP180;5346;48.766;8.674;2023-07-20T11:56:00;94021.00;;;25.10
10598;BMP180;5346;48.766;8.674;2023-07-20T11:58:35;94035.00;;;25.20
10598;BMP180;5346;48.766;8.674;2023-07-20T12:01:09;94019.00;;;26.40
10598;BMP180;5346;48.766;8.674;2023-07-20T12:03:45;94011.00;;;26.60
10598;BMP180;5346;48.766;8.674;2023-07-20T12:06:24;94021.00;;;25.70
10598;BMP180;5346;48.766;8.674;2023-07-20T12:08:57;94043.00;;;25.60
10598;BMP180;5346;48.766;8.674;2023-07-20T12:11:36;94032.00;;;26.30
10598;BMP180;5346;48.766;8.674;2023-07-20T12:14:09;94025.00;;;25.70
10598;BMP180;5346;48.766;8.674;2023-07-20T12:16:44;94014.00;;;26.40
10598;BMP180;5346;48.766;8.674;2023-07-20T12:19:26;94023.00;;;26.80
10598;BMP180;5346;48.766;8.674;2023-07-20T12:21:59;94017.00;;;26.50
10598;BMP180;5346;48.766;8.674;2023-07-20T12:24:33;94014.00;;;24.80
10598;BMP180;5346;48.766;8.674;2023-07-20T12:27:03;94051.00;;;25.10
10598;BMP180;5346;48.766;8.674;2023-07-20T12:29:39;94051.00;;;24.70
10598;BMP180;5346;48.766;8.674;2023-07-20T12:32:07;94015.00;;;23.90
10598;BMP180;5346;48.766;8.674;2023-07-20T12:34:42;94010.00;;;24.20
10598;BMP180;5346;48.766;8.674;2023-07-20T12:37:19;94046.00;;;24.70
10598;BMP180;5346;48.766;8.674;2023-07-20T12:39:53;93999.00;;;24.20
10598;BMP180;5346;48.766;8.674;2023-07-20T12:42:27;94007.00;;;24.90
10598;BMP180;5346;48.766;8.674;2023-07-20T12:44:55;94007.00;;;25.10
10598;BMP180;5346;48.766;8.674;2023-07-20T12:47:29;93994.00;;;26.50
10598;BMP180;5346;48.766;8.674;2023-07-20T12:50:04;93996.00;;;26.40
10598;BMP180;5346;48.766;8.674;2023-07-20T12:52:37;93994.00;;;25.10
10598;BMP180;5346;48.766;8.674;2023-07-20T12:55:14;93993.00;;;25.80
10598;BMP180;5346;48.766;8.674;2023-07-20T12:57:48;93984.00;;;26.60
10598;BMP180;5346;48.766;8.674;2023-07-20T13:00:22;93993.00;;;25.70
10598;BMP180;5346;48.766;8.674;2023-07-20T13:02:57;93989.00;;;25.40
10598;BMP180;5346;48.766;8.674;2023-07-20T13:05:42;94004.00;;;26.40
10598;BMP180;5346;48.766;8.674;2023-07-20T13:08:13;93996.00;;;25.90
10598;BMP180;5346;48.766;8.674;2023-07-20T13:10:55;93995.00;;;26.90
10598;BMP180;5346;48.766;8.674;2023-07-20T13:13:37;93976.00;;;26.40
10598;BMP180;5346;48.766;8.674;2023-07-20T13:16:10;93978.00;;;25.80
10598;BMP180;5346;48.766;8.674;2023-07-20T13:18:45;93998.00;;;25.50
10598;BMP180;5346;48.766;8.674;2023-07-20T13:21:13;94019.00;;;24.60
10598;BMP180;5346;48.766;8.674;2023-07-20T13:23:48;94013.00;;;24.40
10598;BMP180;5346;48.766;8.674;2023-07-20T13:26:16;93985.00;;;24.70
10598;BMP180;5346;48.766;8.674;2023-07-20T13:28:51;93975.00;;;25.90
10598;BMP180;5346;48.766;8.674;2023-07-20T13:31:27;93973.00;;;26.70
10598;BMP180;5346;48.766;8.674;2023-07-20T13:34:08;93978.00;;;27.30
10598;BMP180;5346;48.766;8.674;2023-07-20T13:36:36;93969.00;;;27.70
10598;BMP180;5346;48.766;8.674;2023-07-20T13:39:10;93971.00;;;26.80
10598;BMP180;5346;48.766;8.674;2023-07-20T13:41:39;93959.00;;;26.30
10598;BMP180;5346;48.766;8.674;2023-07-20T13:44:15;93972.00;;;26.10
10598;BMP180;5346;48.766;8.674;2023-07-20T13:46:49;93970.00;;;25.00
10598;BMP180;5346;48.766;8.674;2023-07-20T13:49:44;93960.00;;;26.20
10598;BMP180;5346;48.766;8.674;2023-07-20T13:52:31;93955.00;;;26.40
10598;BMP180;5346;48.766;8.674;2023-07-20T13:55:02;93961.00;;;26.60
10598;BMP180;5346;48.766;8.674;2023-07-20T13:57:38;93962.00;;;26.70
10598;BMP180;5346;48.766;8.674;2023-07-20T14:00:06;93955.00;;;26.00
10598;BMP180;5346;48.766;8.674;2023-07-20T14:02:48;93956.00;;;25.30
10598;BMP180;5346;48.766;8.674;2023-07-20T14:05:20;93960.00;;;26.10
10598;BMP180;5346;48.766;8.674;2023-07-20T14:08:07;93952.00;;;25.60
10598;BMP180;5346;48.766;8.674;2023-07-20T14:10:36;93944.00;;;26.40
10598;BMP180;5346;48.766;8.674;2023-07-20T14:13:12;93950.00;;;27.00
10598;BMP180;5346;48.766;8.674;2023-07-20T14:15:40;93947.00;;;26.70
10598;BMP180;5346;48.766;8.674;2023-07-20T14:18:15;93946.00;;;26.30
10598;BMP180;5346;48.766;8.674;2023-07-20T14:20:46;93951.00;;;27.20
10598;BMP180;5346;48.766;8.674;2023-07-20T14:23:14;93955.00;;;27.70
10598;BMP180;5346;48.766;8.674;2023-07-20T14:25:51;93938.00;;;26.20
10598;BMP180;5346;48.766;8.674;2023-07-20T14:28:19;93938.00;;;26.00
10598;BMP180;5346;48.766;8.674;2023-07-20T14:30:54;93930.00;;;27.10
10598;BMP180;5346;48.766;8.674;2023-07-20T14:33:23;93944.00;;;27.20
10598;BMP180;5346;48.766;8.674;2023-07-20T14:35:58;93938.00;;;26.50
10598;BMP180;5346;48.766;8.674;2023-07-20T14:38:34;93948.00;;;26.50
10598;BMP180;5346;48.766;8.674;2023-07-20T14:41:03;93942.00;;;26.50
10598;BMP180;5346;48.766;8.674;2023-07-20T14:43:39;93943.00;;;26.00
10598;BMP180;5346;48.766;8.674;2023-07-20T14:46:08;93938.00;;;26.30
10598;BMP180;5346;48.766;8.674;2023-07-20T14:48:46;93937.00;;;26.00
10598;BMP180;5346;48.766;8.674;2023-07-20T14:51:14;93939.00;;;25.70
10598;BMP180;5346;48.766;8.674;2023-07-20T14:53:53;93954.00;;;24.70
10598;BMP180;5346;48.766;8.674;2023-07-20T14:56:27;93970.00;;;25.10
10598;BMP180;5346;48.766;8.674;2023-07-20T14:59:01;93952.00;;;25.00
10598;BMP180;5346;48.766;8.674;2023-07-20T15:01:38;93944.00;;;26.10
10598;BMP180;5346;48.766;8.674;2023-07-20T15:04:13;93941.00;;;25.70
10598;BMP180;5346;48.766;8.674;2023-07-20T15:06:47;93940.00;;;26.30
10598;BMP180;5346;48.766;8.674;2023-07-20T15:09:28;93927.00;;;27.50
10598;BMP180;5346;48.766;8.674;2023-07-20T15:11:56;93931.00;;;28.40
10598;BMP180;5346;48.766;8.674;2023-07-20T15:14:30;93931.00;;;27.80
10598;BMP180;5346;48.766;8.674;2023-07-20T15:16:59;93923.00;;;27.80
10598;BMP180;5346;48.766;8.674;2023-07-20T15:19:34;93921.00;;;28.30